createdAt,value
2022-08-16T00:00:20.403Z,5.03
2022-08-16T00:01:28.966Z,4.25
2022-08-16T00:02:40.932Z,3.72
2022-08-16T00:03:47.131Z,3.70
2022-08-16T00:04:52.033Z,4.05
2022-08-16T00:05:57.491Z,5.07
2022-08-16T00:07:02.039Z,4.35
2022-08-16T00:08:08.247Z,4.43
2022-08-16T00:09:12.907Z,4.28
2022-08-16T00:10:21.292Z,4.55
2022-08-16T00:11:26.454Z,4.45
2022-08-16T00:12:32.170Z,4.53
2022-08-16T00:13:41.793Z,5.28
2022-08-16T00:14:46.851Z,4.47
2022-08-16T00:15:51.666Z,4.53
2022-08-16T00:17:12.329Z,5.18
2022-08-16T00:18:29.945Z,5.05
2022-08-16T00:19:41.537Z,5.30
2022-08-16T00:20:48.767Z,4.55
2022-08-16T00:22:00.959Z,4.68
2022-08-16T00:23:08.496Z,4.00
2022-08-16T00:24:31.342Z,4.55
2022-08-16T00:26:35.977Z,3.78
2022-08-16T00:27:06.099Z,4.50
2022-08-16T00:28:13.326Z,4.03
2022-08-16T00:29:18.157Z,4.15
2022-08-16T00:30:28.725Z,4.22
2022-08-16T00:31:59.624Z,4.57
2022-08-16T00:33:01.080Z,5.25
2022-08-16T00:34:05.615Z,4.35
2022-08-16T00:35:16.047Z,5.00
2022-08-16T00:36:20.450Z,4.75
2022-08-16T00:37:56.174Z,5.35
2022-08-16T00:38:51.086Z,4.82
2022-08-16T00:39:58.210Z,5.15
2022-08-16T00:41:03.109Z,4.95
2022-08-16T00:42:10.503Z,4.22
2022-08-16T00:43:42.549Z,4.88
2022-08-16T00:44:59.016Z,5.07
2022-08-16T00:46:34.929Z,4.88
2022-08-16T00:47:48.994Z,4.60
2022-08-16T00:48:55.165Z,4.50
2022-08-16T00:51:58.344Z,4.47
2022-08-16T00:53:02.359Z,4.35
2022-08-16T00:54:06.889Z,5.35
2022-08-16T00:55:14.819Z,4.22
2022-08-16T00:56:56.766Z,4.88
2022-08-16T00:58:05.614Z,5.47
2022-08-16T00:59:23.684Z,4.63
2022-08-16T01:00:32.635Z,4.55
2022-08-16T01:01:37.838Z,5.03
2022-08-16T01:02:41.833Z,4.22
2022-08-16T01:03:54.341Z,4.22
2022-08-16T01:05:09.679Z,5.75
2022-08-16T01:06:40.560Z,4.13
2022-08-16T01:07:51.976Z,4.65
2022-08-16T01:08:59.869Z,5.10
2022-08-16T01:10:16.094Z,4.72
2022-08-16T01:11:23.458Z,5.22
2022-08-16T01:12:28.428Z,4.85
2022-08-16T01:13:37.726Z,4.50
2022-08-16T01:14:51.142Z,4.82
2022-08-16T01:16:10.479Z,4.45
2022-08-16T01:17:17.999Z,4.93
2022-08-16T01:18:39.762Z,4.47
2022-08-16T01:19:57.157Z,5.22
2022-08-16T01:21:33.943Z,5.03
2022-08-16T01:23:09.062Z,4.60
2022-08-16T01:24:54.023Z,4.50
2022-08-16T01:26:33.728Z,4.75
2022-08-16T01:27:39.266Z,5.43
2022-08-16T01:28:49.500Z,3.92
2022-08-16T01:30:20.522Z,4.90
2022-08-16T01:31:31.058Z,4.95
2022-08-16T01:32:44.052Z,5.15
2022-08-16T01:34:08.497Z,4.40
2022-08-16T01:35:39.874Z,5.05
2022-08-16T01:36:45.610Z,4.93
2022-08-16T01:38:49.041Z,3.92
2022-08-16T01:40:03.784Z,4.60
2022-08-16T01:41:32.018Z,4.90
2022-08-16T01:42:37.463Z,5.32
2022-08-16T01:43:54.215Z,5.05
2022-08-16T01:45:06.013Z,3.95
2022-08-16T01:46:37.565Z,4.55
2022-08-16T01:47:53.287Z,4.25
2022-08-16T01:49:13.007Z,4.88
2022-08-16T01:50:42.342Z,4.63
2022-08-16T01:52:02.840Z,5.90
2022-08-16T01:53:12.077Z,5.20
2022-08-16T01:54:31.000Z,4.72
2022-08-16T01:55:42.579Z,5.25
2022-08-16T01:57:00.441Z,3.95
2022-08-16T01:58:17.020Z,4.82
2022-08-16T01:59:33.284Z,5.70
2022-08-16T02:00:40.779Z,4.68
2022-08-16T02:01:54.475Z,4.53
2022-08-16T02:03:05.982Z,5.00
2022-08-16T02:04:13.566Z,4.75
2022-08-16T02:05:46.593Z,4.38
2022-08-16T02:07:14.303Z,4.53
2022-08-16T02:08:33.002Z,4.78
2022-08-16T02:09:41.436Z,5.15
2022-08-16T02:10:47.212Z,5.43
2022-08-16T02:12:40.133Z,6.30
2022-08-16T02:13:27.635Z,5.65
2022-08-16T02:14:34.500Z,5.90
2022-08-16T02:15:43.036Z,5.28
2022-08-16T02:16:52.400Z,5.82
2022-08-16T02:18:02.729Z,4.30
2022-08-16T02:19:16.172Z,5.45
2022-08-16T02:20:26.095Z,5.32
2022-08-16T02:21:32.397Z,5.68
2022-08-16T02:22:39.304Z,5.68
2022-08-16T02:23:44.193Z,5.18
2022-08-16T02:24:50.597Z,6.43
2022-08-16T02:25:59.484Z,5.10
2022-08-16T02:27:05.723Z,4.88
2022-08-16T02:28:10.556Z,4.18
2022-08-16T02:29:21.612Z,4.90
2022-08-16T02:30:44.234Z,5.22
2022-08-16T02:32:04.594Z,5.10
2022-08-16T02:33:24.867Z,5.65
2022-08-16T02:34:52.098Z,5.00
2022-08-16T02:36:01.370Z,4.63
2022-08-16T02:37:09.474Z,5.07
2022-08-16T02:38:15.291Z,4.75
2022-08-16T02:40:57.157Z,4.95
2022-08-16T02:42:05.475Z,5.20
2022-08-16T02:43:11.614Z,4.63
2022-08-16T02:44:18.246Z,4.68
2022-08-16T02:45:28.615Z,4.20
2022-08-16T02:46:35.198Z,5.45
2022-08-16T02:48:01.586Z,4.10
2022-08-16T02:49:58.581Z,5.07
2022-08-16T02:51:04.180Z,5.43
2022-08-16T02:52:17.223Z,4.85
2022-08-16T02:53:31.565Z,4.35
2022-08-16T02:54:40.431Z,4.22
2022-08-16T02:55:50.506Z,5.20
2022-08-16T02:56:56.243Z,4.75
2022-08-16T02:58:19.452Z,5.60
2022-08-16T02:59:39.760Z,4.13
2022-08-16T03:00:50.235Z,3.58
2022-08-16T03:01:57.377Z,5.13
2022-08-16T03:03:03.399Z,5.05
2022-08-16T03:04:40.950Z,4.70
2022-08-16T03:05:35.611Z,4.18
2022-08-16T03:06:43.151Z,4.65
2022-08-16T03:07:50.975Z,4.22
2022-08-16T03:08:57.252Z,4.93
2022-08-16T03:10:12.043Z,4.45
2022-08-16T03:11:21.805Z,4.63
2022-08-16T03:12:30.069Z,3.78
2022-08-16T03:13:40.310Z,4.05
2022-08-16T03:14:47.967Z,4.68
2022-08-16T03:15:57.331Z,4.80
2022-08-16T03:17:03.262Z,5.25
2022-08-16T03:18:12.618Z,4.18
2022-08-16T03:19:59.908Z,4.25
2022-08-16T03:21:07.583Z,4.57
2022-08-16T03:22:19.136Z,4.40
2022-08-16T03:23:36.137Z,3.97
2022-08-16T03:24:42.540Z,3.92
2022-08-16T03:25:52.140Z,4.35
2022-08-16T03:27:03.986Z,3.63
2022-08-16T03:28:11.838Z,3.72
2022-08-16T03:29:16.857Z,4.70
2022-08-16T03:30:44.830Z,4.53
2022-08-16T03:31:52.724Z,4.15
2022-08-16T03:32:59.488Z,3.47
2022-08-16T03:34:19.953Z,3.75
2022-08-16T03:35:33.034Z,3.60
2022-08-16T03:36:51.433Z,4.40
2022-08-16T03:38:34.665Z,3.97
2022-08-16T03:39:45.080Z,3.67
2022-08-16T03:40:52.681Z,4.10
2022-08-16T03:42:00.348Z,4.28
2022-08-16T03:43:20.642Z,2.55
2022-08-16T03:44:44.709Z,4.45
2022-08-16T03:46:00.836Z,3.78
2022-08-16T03:47:10.842Z,3.78
2022-08-16T03:48:19.677Z,3.28
2022-08-16T03:49:41.667Z,3.53
2022-08-16T03:51:00.195Z,4.03
2022-08-16T03:52:11.194Z,2.95
2022-08-16T03:53:17.329Z,3.67
2022-08-16T03:54:23.818Z,3.92
2022-08-16T03:55:45.074Z,3.13
2022-08-16T03:56:57.024Z,4.10
2022-08-16T03:58:07.135Z,3.63
2022-08-16T03:59:16.072Z,4.00
2022-08-16T04:00:59.189Z,3.78
2022-08-16T04:02:12.989Z,3.72
2022-08-16T04:03:52.930Z,3.88
2022-08-16T04:05:03.882Z,3.47
2022-08-16T04:06:12.312Z,3.38
2022-08-16T04:07:18.561Z,3.03
2022-08-16T04:08:56.577Z,2.95
2022-08-16T04:10:27.996Z,4.07
2022-08-16T04:11:36.901Z,3.67
2022-08-16T04:13:04.479Z,3.67
2022-08-16T04:14:32.318Z,3.17
2022-08-16T04:15:49.475Z,3.63
2022-08-16T04:17:01.847Z,3.58
2022-08-16T04:18:10.168Z,3.47
2022-08-16T04:19:17.311Z,3.13
2022-08-16T04:20:41.280Z,2.95
2022-08-16T04:21:48.615Z,3.10
2022-08-16T04:22:55.342Z,3.70
2022-08-16T04:24:02.959Z,3.15
2022-08-16T04:25:10.596Z,3.50
2022-08-16T04:26:18.301Z,3.17
2022-08-16T04:27:31.499Z,3.40
2022-08-16T04:28:56.726Z,2.90
2022-08-16T04:30:10.754Z,2.92
2022-08-16T04:31:16.283Z,2.17
2022-08-16T04:32:23.559Z,2.55
2022-08-16T04:33:28.705Z,3.25
2022-08-16T04:34:47.374Z,3.42
2022-08-16T04:35:59.428Z,2.95
2022-08-16T04:37:06.963Z,3.10
2022-08-16T04:38:20.899Z,3.20
2022-08-16T04:39:46.680Z,3.50
2022-08-16T04:41:18.810Z,2.72
2022-08-16T04:42:41.598Z,3.28
2022-08-16T04:43:47.457Z,2.55
2022-08-16T04:44:56.363Z,2.40
2022-08-16T04:46:03.121Z,3.35
2022-08-16T04:47:21.494Z,2.55
2022-08-16T04:48:49.012Z,1.75
2022-08-16T04:50:18.893Z,2.45
2022-08-16T04:51:25.495Z,3.17
2022-08-16T04:52:34.694Z,3.25
2022-08-16T04:53:41.632Z,3.28
2022-08-16T04:54:46.341Z,3.35
2022-08-16T04:55:53.344Z,2.30
2022-08-16T04:57:02.688Z,3.30
2022-08-16T04:58:44.081Z,2.83
2022-08-16T04:59:56.993Z,3.03
2022-08-16T05:01:02.732Z,2.90
2022-08-16T05:02:41.989Z,3.08
2022-08-16T05:03:59.879Z,3.20
2022-08-16T05:05:07.352Z,3.50
2022-08-16T05:06:23.755Z,2.83
2022-08-16T05:07:59.450Z,2.75
2022-08-16T05:09:18.352Z,3.45
2022-08-16T05:10:31.244Z,3.47
2022-08-16T05:11:37.790Z,2.83
2022-08-16T05:12:47.148Z,4.00
2022-08-16T05:13:56.386Z,2.70
2022-08-16T05:15:15.312Z,3.38
2022-08-16T05:16:30.162Z,3.47
2022-08-16T05:17:37.005Z,3.55
2022-08-16T05:18:56.819Z,3.35
2022-08-16T05:20:39.581Z,3.50
2022-08-16T05:21:38.084Z,3.60
2022-08-16T05:22:45.583Z,4.45
2022-08-16T05:24:01.935Z,3.97
2022-08-16T05:25:13.149Z,3.67
2022-08-16T05:26:25.002Z,4.07
2022-08-16T05:27:49.832Z,4.28
2022-08-16T05:28:56.029Z,4.00
2022-08-16T05:30:33.954Z,4.38
2022-08-16T05:31:37.087Z,3.47
2022-08-16T05:32:56.313Z,3.58
2022-08-16T05:34:17.780Z,3.25
2022-08-16T05:35:26.734Z,3.88
2022-08-16T05:36:33.910Z,3.35
2022-08-16T05:37:44.674Z,2.90
2022-08-16T05:38:57.131Z,3.22
2022-08-16T05:40:07.140Z,3.22
2022-08-16T05:41:14.124Z,4.03
2022-08-16T05:42:35.790Z,3.22
2022-08-16T05:43:42.872Z,4.07
2022-08-16T05:44:50.127Z,3.90
2022-08-16T05:45:59.336Z,3.53
2022-08-16T05:47:05.092Z,4.18
2022-08-16T05:48:17.979Z,2.88
2022-08-16T05:49:25.337Z,3.45
2022-08-16T05:50:45.087Z,3.17
2022-08-16T05:52:00.551Z,3.78
2022-08-16T05:53:08.714Z,3.30
2022-08-16T05:54:25.265Z,3.35
2022-08-16T05:55:31.478Z,3.13
2022-08-16T05:56:42.922Z,3.47
2022-08-16T05:57:52.565Z,4.05
2022-08-16T05:59:19.395Z,4.97
2022-08-16T06:00:26.410Z,9.88
2022-08-16T06:01:32.855Z,5.32
2022-08-16T06:02:44.866Z,5.13
2022-08-16T06:03:49.861Z,3.58
2022-08-16T06:04:59.412Z,4.05
2022-08-16T06:06:05.450Z,3.67
2022-08-16T06:07:24.648Z,3.50
2022-08-16T06:08:44.736Z,3.58
2022-08-16T06:10:00.376Z,3.63
2022-08-16T06:11:10.335Z,2.95
2022-08-16T06:12:27.430Z,3.78
2022-08-16T06:13:49.027Z,2.70
2022-08-16T06:14:59.488Z,3.28
2022-08-16T06:16:39.755Z,3.58
2022-08-16T06:17:47.029Z,2.97
2022-08-16T06:19:00.497Z,3.45
2022-08-16T06:20:35.406Z,2.97
2022-08-16T06:21:41.625Z,3.15
2022-08-16T06:22:58.901Z,3.28
2022-08-16T06:24:53.752Z,3.33
2022-08-16T06:25:44.618Z,3.20
2022-08-16T06:27:05.838Z,3.53
2022-08-16T06:28:35.992Z,3.40
2022-08-16T06:29:50.092Z,3.40
2022-08-16T06:30:56.626Z,2.83
2022-08-16T06:32:04.736Z,3.15
2022-08-16T06:33:12.253Z,3.83
2022-08-16T06:34:57.191Z,4.13
2022-08-16T06:36:10.266Z,3.70
2022-08-16T06:37:18.357Z,3.33
2022-08-16T06:38:33.351Z,3.15
2022-08-16T06:39:50.462Z,3.85
2022-08-16T06:41:01.115Z,3.47
2022-08-16T06:42:08.395Z,3.40
2022-08-16T06:43:13.619Z,3.35
2022-08-16T06:44:41.175Z,3.08
2022-08-16T06:45:52.427Z,2.78
2022-08-16T06:46:58.803Z,3.92
2022-08-16T06:48:09.185Z,3.78
2022-08-16T06:49:18.278Z,3.55
2022-08-16T06:50:57.599Z,2.95
2022-08-16T06:52:04.865Z,3.60
2022-08-16T06:53:35.781Z,3.72
2022-08-16T06:54:41.992Z,3.30
2022-08-16T06:55:59.342Z,3.22
2022-08-16T06:57:16.757Z,2.85
2022-08-16T06:58:45.894Z,3.17
2022-08-16T06:59:53.080Z,3.20
2022-08-16T07:01:04.590Z,2.92
2022-08-16T07:02:51.695Z,3.50
2022-08-16T07:03:54.921Z,2.45
2022-08-16T07:05:02.356Z,2.80
2022-08-16T07:06:09.265Z,3.40
2022-08-16T07:07:22.142Z,2.80
2022-08-16T07:08:46.052Z,2.92
2022-08-16T07:09:54.901Z,2.60
2022-08-16T07:11:01.529Z,3.30
2022-08-16T07:12:17.316Z,3.20
2022-08-16T07:13:58.529Z,2.88
2022-08-16T07:14:49.358Z,3.03
2022-08-16T07:16:17.319Z,2.95
2022-08-16T07:17:46.550Z,2.83
2022-08-16T07:19:01.522Z,3.05
2022-08-16T07:20:35.002Z,3.20
2022-08-16T07:21:46.533Z,3.25
2022-08-16T07:23:13.269Z,3.28
2022-08-16T07:24:30.306Z,3.42
2022-08-16T07:25:40.455Z,4.07
2022-08-16T07:26:48.878Z,3.90
2022-08-16T07:27:54.830Z,3.58
2022-08-16T07:29:01.180Z,4.07
2022-08-16T07:30:45.663Z,4.03
2022-08-16T07:31:38.355Z,3.75
2022-08-16T07:32:51.806Z,3.80
2022-08-16T07:33:59.528Z,3.20
2022-08-16T07:35:05.834Z,4.15
2022-08-16T07:36:14.756Z,3.58
2022-08-16T07:37:28.438Z,3.70
2022-08-16T07:38:35.701Z,2.72
2022-08-16T07:39:43.192Z,3.55
2022-08-16T07:41:00.598Z,3.05
2022-08-16T07:42:20.294Z,3.25
2022-08-16T07:43:49.471Z,3.45
2022-08-16T07:45:17.414Z,3.85
2022-08-16T07:46:37.714Z,4.07
2022-08-16T07:47:51.419Z,3.88
2022-08-16T07:49:02.436Z,3.60
2022-08-16T07:50:57.297Z,3.67
2022-08-16T07:51:37.809Z,3.13
2022-08-16T07:52:45.565Z,3.90
2022-08-16T07:54:09.301Z,3.60
2022-08-16T07:55:21.106Z,2.80
2022-08-16T07:56:34.069Z,3.35
2022-08-16T07:57:58.136Z,2.67
2022-08-16T07:59:08.599Z,3.67
2022-08-16T08:00:20.283Z,3.20
2022-08-16T08:01:32.370Z,3.40
2022-08-16T08:02:39.921Z,2.97
2022-08-16T08:03:56.120Z,2.67
2022-08-16T08:05:03.458Z,3.50
2022-08-16T08:06:10.519Z,3.25
2022-08-16T08:07:18.565Z,3.90
2022-08-16T08:08:50.471Z,4.15
2022-08-16T08:09:53.007Z,3.22
2022-08-16T08:11:02.025Z,2.92
2022-08-16T08:12:32.510Z,3.10
2022-08-16T08:13:46.984Z,2.70
2022-08-16T08:14:52.426Z,2.72
2022-08-16T08:15:59.164Z,3.03
2022-08-16T08:17:08.660Z,2.85
2022-08-16T08:18:29.368Z,3.15
2022-08-16T08:19:36.585Z,3.00
2022-08-16T08:20:46.524Z,2.50
2022-08-16T08:22:07.634Z,2.50
2022-08-16T08:23:15.607Z,3.60
2022-08-16T08:24:44.821Z,2.70
2022-08-16T08:25:54.587Z,2.92
2022-08-16T08:27:06.906Z,2.55
2022-08-16T08:28:14.310Z,2.58
2022-08-16T08:29:37.544Z,2.65
2022-08-16T08:31:01.615Z,3.20
2022-08-16T08:32:57.427Z,3.60
2022-08-16T08:33:38.235Z,3.10
2022-08-16T08:34:49.502Z,2.78
2022-08-16T08:36:22.120Z,3.05
2022-08-16T08:37:28.107Z,2.80
2022-08-16T08:38:54.399Z,2.80
2022-08-16T08:39:59.392Z,3.00
2022-08-16T08:41:06.743Z,2.78
2022-08-16T08:42:12.478Z,2.67
2022-08-16T08:43:19.255Z,3.13
2022-08-16T08:44:27.889Z,3.58
2022-08-16T08:45:48.505Z,2.70
2022-08-16T08:47:11.067Z,2.25
2022-08-16T08:48:34.455Z,2.28
2022-08-16T08:49:46.544Z,3.30
2022-08-16T08:51:00.777Z,3.40
2022-08-16T08:52:34.128Z,3.15
2022-08-16T08:53:41.966Z,2.60
2022-08-16T08:54:49.026Z,2.70
2022-08-16T08:55:59.080Z,2.95
2022-08-16T08:57:07.550Z,2.63
2022-08-16T08:58:13.615Z,2.45
2022-08-16T08:59:24.079Z,3.00
2022-08-16T09:00:32.743Z,2.67
2022-08-16T09:01:58.699Z,2.53
2022-08-16T09:03:23.498Z,2.67
2022-08-16T09:04:33.425Z,2.60
2022-08-16T09:05:39.041Z,3.67
2022-08-16T09:06:50.959Z,3.00
2022-08-16T09:08:01.734Z,2.75
2022-08-16T09:09:17.630Z,2.60
2022-08-16T09:10:26.070Z,2.78
2022-08-16T09:11:41.051Z,2.58
2022-08-16T09:13:15.488Z,2.90
2022-08-16T09:14:24.003Z,2.80
2022-08-16T09:15:33.058Z,2.95
2022-08-16T09:17:00.797Z,2.60
2022-08-16T09:18:25.129Z,2.75
2022-08-16T09:19:40.701Z,2.63
2022-08-16T09:20:59.431Z,2.83
2022-08-16T09:22:08.134Z,2.53
2022-08-16T09:23:37.033Z,3.10
2022-08-16T09:24:52.184Z,2.55
2022-08-16T09:26:00.402Z,3.38
2022-08-16T09:27:08.118Z,2.97
2022-08-16T09:29:13.939Z,3.05
2022-08-16T09:29:45.689Z,2.78
2022-08-16T09:30:51.608Z,2.80
2022-08-16T09:32:00.338Z,3.05
2022-08-16T09:33:08.861Z,2.40
2022-08-16T09:34:25.494Z,3.58
2022-08-16T09:36:02.603Z,3.35
2022-08-16T09:37:18.075Z,3.25
2022-08-16T09:38:32.934Z,2.72
2022-08-16T09:39:41.280Z,2.95
2022-08-16T09:40:48.877Z,3.25
2022-08-16T09:41:59.996Z,3.63
2022-08-16T09:43:06.470Z,2.25
2022-08-16T09:45:10.952Z,3.20
2022-08-16T09:45:54.576Z,3.08
2022-08-16T09:47:00.479Z,3.00
2022-08-16T09:48:44.445Z,3.45
2022-08-16T09:49:45.890Z,2.78
2022-08-16T09:51:00.377Z,2.60
2022-08-16T09:52:09.611Z,3.00
2022-08-16T09:53:24.068Z,2.30
2022-08-16T09:54:32.677Z,3.20
2022-08-16T09:55:44.731Z,2.80
2022-08-16T09:56:53.301Z,2.70
2022-08-16T09:58:01.452Z,3.10
2022-08-16T09:59:12.201Z,3.63
2022-08-16T10:00:42.688Z,3.42
2022-08-16T10:01:59.423Z,3.55
2022-08-16T10:03:06.280Z,3.08
2022-08-16T10:04:29.276Z,2.92
2022-08-16T10:05:39.185Z,3.03
2022-08-16T10:06:47.271Z,2.95
2022-08-16T10:07:56.100Z,2.45
2022-08-16T10:09:08.475Z,2.33
2022-08-16T10:10:18.966Z,2.95
2022-08-16T10:12:11.564Z,2.72
2022-08-16T10:13:28.839Z,3.03
2022-08-16T10:14:35.891Z,3.28
2022-08-16T10:15:54.956Z,3.58
2022-08-16T10:17:05.684Z,3.67
2022-08-16T10:18:56.125Z,2.67
2022-08-16T10:19:41.637Z,3.17
2022-08-16T10:20:59.151Z,3.65
2022-08-16T10:22:06.530Z,3.22
2022-08-16T10:23:17.480Z,3.55
2022-08-16T10:24:28.662Z,2.90
2022-08-16T10:27:17.250Z,2.88
2022-08-16T10:27:25.177Z,3.33
2022-08-16T10:28:39.596Z,4.10
2022-08-16T10:30:00.359Z,3.03
2022-08-16T10:31:45.376Z,3.08
2022-08-16T10:33:03.207Z,3.75
2022-08-16T10:34:31.947Z,2.95
2022-08-16T10:35:46.585Z,3.45
2022-08-16T10:37:32.157Z,3.33
2022-08-16T10:38:42.289Z,3.55
2022-08-16T10:39:50.461Z,3.95
2022-08-16T10:41:32.723Z,2.95
2022-08-16T10:42:43.880Z,3.00
2022-08-16T10:43:53.852Z,2.58
2022-08-16T10:45:00.397Z,3.25
2022-08-16T10:46:33.754Z,3.03
2022-08-16T10:47:44.515Z,3.00
2022-08-16T10:49:21.806Z,2.63
2022-08-16T10:50:30.046Z,3.08
2022-08-16T10:52:02.444Z,3.00
2022-08-16T10:53:08.038Z,3.17
2022-08-16T10:54:28.883Z,3.40
2022-08-16T10:55:57.966Z,3.17
2022-08-16T10:57:07.527Z,3.75
2022-08-16T10:58:21.810Z,3.20
2022-08-16T10:59:54.492Z,2.65
2022-08-16T11:02:58.056Z,3.72
2022-08-16T11:05:04.611Z,3.60
2022-08-16T11:09:20.862Z,3.00
2022-08-16T11:10:57.200Z,3.00
2022-08-16T11:15:19.262Z,4.13
2022-08-16T11:19:25.325Z,3.55
2022-08-16T11:20:41.776Z,3.60
2022-08-16T11:23:20.437Z,3.70
2022-08-16T11:24:39.445Z,3.50
2022-08-16T11:26:07.753Z,2.90
2022-08-16T11:27:32.780Z,3.83
2022-08-16T11:30:19.812Z,3.83
2022-08-16T11:31:26.846Z,3.40
2022-08-16T11:32:33.969Z,4.35
2022-08-16T11:33:55.130Z,3.28
2022-08-16T11:35:14.577Z,3.88
2022-08-16T11:36:59.291Z,2.97
2022-08-16T11:38:47.055Z,3.63
2022-08-16T11:39:45.085Z,3.95
2022-08-16T11:41:15.251Z,2.90
2022-08-16T11:42:45.962Z,3.65
2022-08-16T11:43:51.931Z,4.07
2022-08-16T11:45:02.010Z,3.53
2022-08-16T11:46:43.501Z,3.78
2022-08-16T11:47:44.933Z,4.28
2022-08-16T11:48:53.433Z,3.53
2022-08-16T11:50:01.502Z,3.55
2022-08-16T11:51:17.189Z,3.33
2022-08-16T11:52:25.700Z,4.00
2022-08-16T11:53:36.206Z,3.55
2022-08-16T11:54:53.794Z,3.85
2022-08-16T11:56:03.245Z,3.50
2022-08-16T11:57:15.591Z,3.90
2022-08-16T11:58:24.731Z,3.08
2022-08-16T11:59:32.807Z,3.28
2022-08-16T12:00:51.277Z,3.25
2022-08-16T12:02:30.741Z,3.70
2022-08-16T12:03:35.794Z,3.67
2022-08-16T12:04:51.608Z,3.30
2022-08-16T12:06:03.453Z,3.78
2022-08-16T12:07:11.038Z,3.33
2022-08-16T12:08:26.005Z,2.85
2022-08-16T12:09:32.975Z,3.03
2022-08-16T12:10:47.313Z,3.25
2022-08-16T12:11:55.732Z,3.97
2022-08-16T12:13:02.776Z,3.67
2022-08-16T12:14:08.703Z,4.00
2022-08-16T12:15:16.045Z,4.03
2022-08-16T12:16:23.991Z,3.25
2022-08-16T12:17:43.841Z,3.33
2022-08-16T12:18:50.345Z,3.15
2022-08-16T12:20:18.798Z,3.47
2022-08-16T12:21:25.808Z,3.78
2022-08-16T12:22:43.192Z,3.45
2022-08-16T12:23:49.241Z,3.40
2022-08-16T12:24:55.741Z,3.30
2022-08-16T12:26:13.865Z,3.42
2022-08-16T12:27:23.264Z,3.60
2022-08-16T12:28:36.834Z,3.92
2022-08-16T12:29:58.525Z,3.10
2022-08-16T12:31:06.548Z,3.40
2022-08-16T12:32:38.453Z,3.47
2022-08-16T12:33:44.940Z,3.78
2022-08-16T12:34:53.068Z,3.60
2022-08-16T12:36:00.932Z,2.92
2022-08-16T12:37:11.655Z,3.58
2022-08-16T12:38:48.321Z,3.35
2022-08-16T12:39:58.672Z,3.60
2022-08-16T12:41:05.562Z,3.55
2022-08-16T12:42:13.642Z,3.70
2022-08-16T12:43:24.303Z,4.30
2022-08-16T12:44:31.431Z,3.60
2022-08-16T12:47:46.581Z,4.05
2022-08-16T12:49:05.285Z,4.40
2022-08-16T12:50:14.990Z,4.18
2022-08-16T12:51:24.596Z,3.00
2022-08-16T12:52:41.350Z,3.80
2022-08-16T12:53:57.161Z,3.22
2022-08-16T12:55:08.629Z,3.55
2022-08-16T12:56:15.116Z,4.10
2022-08-16T12:57:20.747Z,3.42
2022-08-16T12:58:47.537Z,3.53
2022-08-16T12:59:55.068Z,3.60
2022-08-16T13:01:03.441Z,3.83
2022-08-16T13:02:12.566Z,3.65
2022-08-16T13:03:40.027Z,3.92
2022-08-16T13:04:48.188Z,3.70
2022-08-16T13:05:57.800Z,3.70
2022-08-16T13:07:15.592Z,3.50
2022-08-16T13:08:21.113Z,4.07
2022-08-16T13:09:29.167Z,3.95
2022-08-16T13:10:37.639Z,3.45
2022-08-16T13:12:36.435Z,4.45
2022-08-16T13:14:08.583Z,3.38
2022-08-16T13:15:57.215Z,3.40
2022-08-16T13:17:18.835Z,3.10
2022-08-16T13:19:14.349Z,3.78
2022-08-16T13:20:26.540Z,2.97
2022-08-16T13:21:33.926Z,3.35
2022-08-16T13:22:47.987Z,3.33
2022-08-16T13:23:55.801Z,3.10
2022-08-16T13:25:06.699Z,3.63
2022-08-16T13:26:17.254Z,4.65
2022-08-16T13:28:02.019Z,3.72
2022-08-16T13:28:50.373Z,4.25
2022-08-16T13:29:57.831Z,3.40
2022-08-16T13:31:04.406Z,4.88
2022-08-16T13:32:39.754Z,3.72
2022-08-16T13:33:38.939Z,4.47
2022-08-16T13:34:49.956Z,3.95
2022-08-16T13:36:45.790Z,3.75
2022-08-16T13:37:41.843Z,3.83
2022-08-16T13:38:47.587Z,4.85
2022-08-16T13:39:57.077Z,3.35
2022-08-16T13:41:09.620Z,4.43
2022-08-16T13:42:22.007Z,3.80
2022-08-16T13:43:34.263Z,4.22
2022-08-16T13:44:56.240Z,4.18
2022-08-16T13:46:04.521Z,4.75
2022-08-16T13:47:10.142Z,4.03
2022-08-16T13:48:24.434Z,4.32
2022-08-16T13:49:32.575Z,4.32
2022-08-16T13:50:51.284Z,3.03
2022-08-16T13:51:58.301Z,4.95
2022-08-16T13:53:06.083Z,4.55
2022-08-16T13:54:13.548Z,4.35
2022-08-16T13:55:24.687Z,4.00
2022-08-16T13:56:38.726Z,3.50
2022-08-16T13:58:34.181Z,3.85
2022-08-16T13:59:21.227Z,3.88
2022-08-16T14:00:27.737Z,4.05
2022-08-16T14:01:36.486Z,3.65
2022-08-16T14:02:43.619Z,4.38
2022-08-16T14:03:49.594Z,3.05
2022-08-16T14:05:05.011Z,3.78
2022-08-16T14:08:13.806Z,3.50
2022-08-16T14:09:21.484Z,4.43
2022-08-16T14:10:28.972Z,4.32
2022-08-16T14:11:35.657Z,3.97
2022-08-16T14:12:44.764Z,4.43
2022-08-16T14:13:51.930Z,3.47
2022-08-16T14:15:00.996Z,3.97
2022-08-16T14:16:12.457Z,3.50
2022-08-16T14:18:15.453Z,3.90
2022-08-16T14:18:59.158Z,3.33
2022-08-16T14:20:07.764Z,2.95
2022-08-16T14:21:24.760Z,3.03
2022-08-16T14:22:40.123Z,3.38
2022-08-16T14:24:29.900Z,3.63
2022-08-16T14:25:36.257Z,3.22
2022-08-16T14:26:44.928Z,4.10
2022-08-16T14:30:43.150Z,3.67
2022-08-16T14:31:53.883Z,4.07
2022-08-16T14:33:00.877Z,3.50
2022-08-16T14:34:11.161Z,3.55
2022-08-16T14:35:49.085Z,2.38
2022-08-16T14:37:00.015Z,4.43
2022-08-16T14:38:05.212Z,3.35
2022-08-16T14:39:15.541Z,3.67
2022-08-16T14:40:20.901Z,3.13
2022-08-16T14:41:29.201Z,3.20
2022-08-16T14:42:36.813Z,3.55
2022-08-16T14:44:12.326Z,3.17
2022-08-16T14:45:27.153Z,3.08
2022-08-16T14:46:35.033Z,2.97
2022-08-16T14:47:39.759Z,3.35
2022-08-16T14:48:57.700Z,3.33
2022-08-16T14:50:06.996Z,3.05
2022-08-16T14:51:14.022Z,2.75
2022-08-16T14:52:44.335Z,3.42
2022-08-16T14:53:49.817Z,2.83
2022-08-16T14:55:13.232Z,3.47
2022-08-16T14:56:42.455Z,3.33
2022-08-16T14:57:44.764Z,3.45
2022-08-16T14:58:51.566Z,3.88
2022-08-16T15:00:18.718Z,3.50
2022-08-16T15:01:24.902Z,3.47
2022-08-16T15:02:55.650Z,3.50
2022-08-16T15:04:07.537Z,3.80
2022-08-16T15:05:15.033Z,2.70
2022-08-16T15:06:32.063Z,3.75
2022-08-16T15:07:46.241Z,3.65
2022-08-16T15:08:52.218Z,3.55
2022-08-16T15:10:01.207Z,3.50
2022-08-16T15:11:08.413Z,3.30
2022-08-16T15:12:26.771Z,3.47
2022-08-16T15:13:43.351Z,4.35
2022-08-16T15:14:53.193Z,3.92
2022-08-16T15:16:03.818Z,3.10
2022-08-16T15:17:09.288Z,3.00
2022-08-16T15:18:46.418Z,3.67
2022-08-16T15:19:53.874Z,3.10
2022-08-16T15:21:00.946Z,3.15
2022-08-16T15:22:17.851Z,3.42
2022-08-16T15:23:26.111Z,3.70
2022-08-16T15:24:32.711Z,3.47
2022-08-16T15:26:03.117Z,4.00
2022-08-16T15:27:10.703Z,3.58
2022-08-16T15:28:30.934Z,3.90
2022-08-16T15:29:38.056Z,3.58
2022-08-16T15:31:00.908Z,3.22
2022-08-16T15:32:09.978Z,3.25
2022-08-16T15:33:38.927Z,3.40
2022-08-16T15:34:51.226Z,3.47
2022-08-16T15:36:09.309Z,3.67
2022-08-16T15:37:17.459Z,3.47
2022-08-16T15:38:31.766Z,3.70
2022-08-16T15:39:53.815Z,3.58
2022-08-16T15:41:50.201Z,3.42
2022-08-16T15:42:57.853Z,3.17
2022-08-16T15:44:10.431Z,3.65
2022-08-16T15:45:37.745Z,3.28
2022-08-16T15:46:55.228Z,3.35
2022-08-16T15:48:05.647Z,3.90
2022-08-16T15:49:12.409Z,3.13
2022-08-16T15:50:43.204Z,3.58
2022-08-16T15:51:48.949Z,2.92
2022-08-16T15:53:17.701Z,2.67
2022-08-16T15:54:30.944Z,4.30
2022-08-16T15:55:39.095Z,3.65
2022-08-16T15:56:47.356Z,3.95
2022-08-16T15:57:53.958Z,3.83
2022-08-16T15:59:06.669Z,3.83
2022-08-16T16:00:15.891Z,3.30
2022-08-16T16:01:22.125Z,3.58
2022-08-16T16:02:31.446Z,4.00
2022-08-16T16:03:37.820Z,2.67
2022-08-16T16:04:45.607Z,3.92
2022-08-16T16:06:13.106Z,3.83
2022-08-16T16:07:20.299Z,2.78
2022-08-16T16:08:32.820Z,4.07
2022-08-16T16:09:38.842Z,2.97
2022-08-16T16:10:54.281Z,3.92
2022-08-16T16:12:34.160Z,3.63
2022-08-16T16:13:34.812Z,3.50
2022-08-16T16:14:41.479Z,3.35
2022-08-16T16:15:56.211Z,3.60
2022-08-16T16:17:16.151Z,3.10
2022-08-16T16:18:26.624Z,3.58
2022-08-16T16:19:44.897Z,3.08
2022-08-16T16:21:03.019Z,3.63
2022-08-16T16:22:07.939Z,3.25
2022-08-16T16:23:44.487Z,2.75
2022-08-16T16:25:12.833Z,4.00
2022-08-16T16:26:18.730Z,3.38
2022-08-16T16:27:44.215Z,3.70
2022-08-16T16:29:07.683Z,3.90
2022-08-16T16:30:37.377Z,2.92
2022-08-16T16:31:59.216Z,4.22
2022-08-16T16:33:12.662Z,3.95
2022-08-16T16:34:32.306Z,3.92
2022-08-16T16:35:40.835Z,4.30
2022-08-16T16:36:53.319Z,3.58
2022-08-16T16:38:08.059Z,3.22
2022-08-16T16:39:15.011Z,3.97
2022-08-16T16:40:28.828Z,3.17
2022-08-16T16:41:42.077Z,4.20
2022-08-16T16:43:13.780Z,3.22
2022-08-16T16:44:31.820Z,3.25
2022-08-16T16:45:41.076Z,3.63
2022-08-16T16:47:13.163Z,2.97
2022-08-16T16:48:22.087Z,3.50
2022-08-16T16:49:41.655Z,3.25
2022-08-16T16:51:28.286Z,3.05
2022-08-16T16:52:45.229Z,3.17
2022-08-16T16:53:55.695Z,3.80
2022-08-16T16:55:02.948Z,3.47
2022-08-16T16:56:19.346Z,3.42
2022-08-16T16:57:48.892Z,3.08
2022-08-16T16:59:25.221Z,2.97
2022-08-16T17:00:37.902Z,2.78
2022-08-16T17:01:59.900Z,2.67
2022-08-16T17:03:18.771Z,3.03